Time;durP1;ratioP1;P1;durP2;ratioP2;P2;SDS_P1;SDS_P2;PMS_P1;PMS_P2;Temp;Humidity;BMP_temperature;BMP_pressure;BME280_temperature;BME280_humidity;BME280_pressure;Samples;Min_cycle;Max_cycle;Signal;HPM_P1;HPM_P2
2021/11/26 00:01:10;;;;;;;1.02;0.80;;;5.60;99.90;;;;;;4437268;32;20061;-69
2021/11/26 00:03:36;;;;;;;0.85;0.82;;;5.50;99.90;;;;;;4428874;32;20119;-69
2021/11/26 00:06:02;;;;;;;2.83;1.85;;;5.60;99.90;;;;;;4430575;32;20370;-69
2021/11/26 00:08:27;;;;;;;0.52;0.52;;;5.50;99.90;;;;;;4428883;32;20432;-69
2021/11/26 00:10:53;;;;;;;1.75;0.68;;;5.50;99.90;;;;;;4429472;32;20061;-69
2021/11/26 00:13:19;;;;;;;1.48;0.90;;;5.50;99.90;;;;;;4432932;32;20057;-69
2021/11/26 00:15:44;;;;;;;0.77;0.77;;;5.50;99.90;;;;;;4433057;32;20387;-69
2021/11/26 00:18:20;;;;;;;0.90;0.85;;;5.50;99.90;;;;;;4432106;32;20081;-69
2021/11/26 00:20:47;;;;;;;0.73;0.73;;;5.50;99.90;;;;;;4429308;32;20535;-69
2021/11/26 00:23:14;;;;;;;0.65;0.65;;;5.60;99.90;;;;;;4432618;32;20069;-69
2021/11/26 00:25:40;;;;;;;0.80;0.77;;;5.60;99.90;;;;;;4433166;32;20060;-69
2021/11/26 00:28:06;;;;;;;0.85;0.85;;;5.60;99.90;;;;;;4431182;32;20066;-69
2021/11/26 00:30:32;;;;;;;3.40;1.30;;;5.60;99.90;;;;;;4430074;32;20413;-69
2021/11/26 00:32:58;;;;;;;2.08;0.90;;;5.50;99.90;;;;;;4433872;32;20092;-69
2021/11/26 00:35:23;;;;;;;4.37;0.98;;;5.50;99.90;;;;;;4429200;32;20143;-69
2021/11/26 00:37:49;;;;;;;0.40;0.40;;;5.50;99.90;;;;;;4430629;32;20064;-68
2021/11/26 00:40:16;;;;;;;0.40;0.40;;;5.60;99.90;;;;;;4429164;32;20058;-69
2021/11/26 00:42:42;;;;;;;0.70;0.70;;;5.50;99.90;;;;;;4429012;32;20061;-69
2021/11/26 00:45:10;;;;;;;5.25;2.25;;;5.60;99.90;;;;;;4432186;32;20068;-69
2021/11/26 00:47:35;;;;;;;0.57;0.57;;;5.60;99.90;;;;;;4435551;32;20073;-69
2021/11/26 00:50:01;;;;;;;0.55;0.55;;;5.60;99.90;;;;;;4429858;32;20069;-69
2021/11/26 00:52:26;;;;;;;1.23;0.73;;;5.60;99.90;;;;;;4430531;32;20114;-69
2021/11/26 00:54:52;;;;;;;0.98;0.65;;;5.50;99.90;;;;;;4438896;32;20078;-69
2021/11/26 00:57:18;;;;;;;1.23;1.10;;;5.60;99.90;;;;;;4435063;32;20117;-68
2021/11/26 00:59:43;;;;;;;0.60;0.60;;;5.60;99.90;;;;;;4429918;32;20078;-68
2021/11/26 01:02:09;;;;;;;2.28;1.02;;;5.60;99.90;;;;;;4429294;32;20065;-69
2021/11/26 01:04:35;;;;;;;1.02;0.93;;;5.50;99.90;;;;;;4429019;32;20065;-69
2021/11/26 01:07:00;;;;;;;0.75;0.75;;;5.50;99.90;;;;;;4430738;32;20086;-69
2021/11/26 01:09:26;;;;;;;2.28;1.35;;;5.50;99.90;;;;;;4430078;32;20070;-68
2021/11/26 01:11:52;;;;;;;1.62;0.85;;;5.50;99.90;;;;;;4429979;32;20070;-68
2021/11/26 01:14:17;;;;;;;1.15;1.05;;;5.50;99.90;;;;;;4435364;32;20450;-68
2021/11/26 01:16:43;;;;;;;0.45;0.45;;;5.50;99.90;;;;;;4433863;32;20090;-68
2021/11/26 01:19:09;;;;;;;0.80;0.80;;;5.50;99.90;;;;;;4432647;32;20104;-69
2021/11/26 01:21:34;;;;;;;0.28;0.28;;;5.50;99.90;;;;;;4431367;32;20093;-70
2021/11/26 01:24:00;;;;;;;0.95;0.88;;;5.50;99.90;;;;;;4427994;32;20072;-69
2021/11/26 01:26:25;;;;;;;0.50;0.50;;;5.50;99.90;;;;;;4433410;32;20073;-69
2021/11/26 01:28:51;;;;;;;3.62;1.15;;;5.50;99.90;;;;;;4439183;32;20116;-69
2021/11/26 01:31:18;;;;;;;0.40;0.40;;;5.60;99.90;;;;;;4432336;32;20066;-69
2021/11/26 01:33:44;;;;;;;1.08;1.02;;;5.60;99.90;;;;;;4429020;32;20061;-69
2021/11/26 01:36:10;;;;;;;0.37;0.37;;;5.60;99.90;;;;;;4427719;32;20452;-69
2021/11/26 01:38:35;;;;;;;4.12;0.75;;;5.60;99.90;;;;;;4437581;32;20081;-69
2021/11/26 01:41:04;;;;;;;0.50;0.50;;;5.60;99.90;;;;;;4447263;32;20122;-69
2021/11/26 01:43:30;;;;;;;1.90;1.23;;;5.50;99.90;;;;;;4447145;32;20525;-69
2021/11/26 01:46:09;;;;;;;5.15;2.35;;;5.50;99.90;;;;;;4439678;32;20081;-69
2021/11/26 01:48:38;;;;;;;7.45;1.83;;;5.50;99.90;;;;;;4430887;32;20058;-68
2021/11/26 01:51:04;;;;;;;0.85;0.85;;;5.50;99.90;;;;;;4439211;32;20065;-70
2021/11/26 01:53:30;;;;;;;1.25;1.15;;;5.60;99.90;;;;;;4441778;32;20056;-69
2021/11/26 01:55:56;;;;;;;0.90;0.82;;;5.50;99.90;;;;;;4439491;32;20124;-69
2021/11/26 01:58:22;;;;;;;0.70;0.70;;;5.60;99.90;;;;;;4431991;32;20074;-69
2021/11/26 02:00:51;;;;;;;0.68;0.68;;;5.50;99.90;;;;;;4432898;32;20116;-69
2021/11/26 02:03:16;;;;;;;0.50;0.45;;;5.40;99.90;;;;;;4434348;32;20132;-69
2021/11/26 02:05:43;;;;;;;0.47;0.47;;;5.40;99.90;;;;;;4435329;32;20097;-69
2021/11/26 02:08:09;;;;;;;0.55;0.55;;;5.40;99.90;;;;;;4434837;32;20068;-69
2021/11/26 02:10:35;;;;;;;0.40;0.40;;;5.50;99.90;;;;;;4431533;32;20074;-69
2021/11/26 02:13:01;;;;;;;31.77;1.92;;;5.50;99.90;;;;;;4434983;32;20061;-69
2021/11/26 02:15:28;;;;;;;1.98;0.75;;;5.50;99.90;;;;;;4431858;32;20530;-69
2021/11/26 02:18:00;;;;;;;1.30;1.15;;;5.50;99.90;;;;;;4432095;32;20065;-69
2021/11/26 02:20:28;;;;;;;0.55;0.55;;;5.40;99.90;;;;;;4432137;32;20125;-69
2021/11/26 02:22:55;;;;;;;1.85;1.37;;;5.40;99.90;;;;;;4429147;32;20077;-69
2021/11/26 02:25:22;;;;;;;0.40;0.40;;;5.50;99.90;;;;;;4432084;32;20112;-69
2021/11/26 02:27:51;;;;;;;1.08;0.98;;;5.50;99.90;;;;;;4430625;32;20065;-70
2021/11/26 02:30:17;;;;;;;0.95;0.90;;;5.50;99.90;;;;;;4430974;32;20479;-69
2021/11/26 02:32:45;;;;;;;0.30;0.30;;;5.50;99.90;;;;;;4436017;32;20101;-69
2021/11/26 02:35:12;;;;;;;1.08;0.60;;;5.50;99.90;;;;;;4441352;32;20136;-69
2021/11/26 02:37:39;;;;;;;0.47;0.47;;;5.50;99.90;;;;;;4438055;32;20073;-69
2021/11/26 02:40:06;;;;;;;1.30;0.60;;;5.50;99.90;;;;;;4434281;32;20086;-69
2021/11/26 02:42:32;;;;;;;10.60;1.25;;;5.50;99.90;;;;;;4434703;32;20089;-69
2021/11/26 02:44:57;;;;;;;0.65;0.55;;;5.50;99.90;;;;;;4441165;32;20124;-69
2021/11/26 02:47:23;;;;;;;0.55;0.55;;;5.50;99.90;;;;;;4421675;32;20070;-69
2021/11/26 02:49:49;;;;;;;0.70;0.70;;;5.40;99.90;;;;;;4430506;32;20073;-69
2021/11/26 02:52:14;;;;;;;0.70;0.70;;;5.40;99.90;;;;;;4434029;32;20105;-69
2021/11/26 02:54:40;;;;;;;0.52;0.52;;;5.40;99.90;;;;;;4436733;32;20193;-69
2021/11/26 02:57:05;;;;;;;1.98;1.15;;;5.50;99.90;;;;;;4440180;32;20391;-68
2021/11/26 02:59:31;;;;;;;4.03;0.82;;;5.50;99.90;;;;;;4430090;32;20557;-68
2021/11/26 03:01:57;;;;;;;0.52;0.52;;;5.60;99.90;;;;;;4436171;32;20116;-68
2021/11/26 03:04:22;;;;;;;0.50;0.50;;;5.50;99.90;;;;;;4430377;32;20760;-68
2021/11/26 03:07:06;;;;;;;2.72;1.27;;;5.50;99.90;;;;;;4437296;32;20074;-68
2021/11/26 03:09:32;;;;;;;1.12;1.02;;;5.50;99.90;;;;;;4429211;32;20108;-68
2021/11/26 03:11:57;;;;;;;0.47;0.47;;;5.50;99.90;;;;;;4439147;32;20065;-68
2021/11/26 03:14:23;;;;;;;1.45;1.10;;;5.40;99.90;;;;;;4432869;32;20112;-68
2021/11/26 03:16:49;;;;;;;0.40;0.40;;;5.50;99.90;;;;;;4429288;32;20057;-68
2021/11/26 03:19:14;;;;;;;0.47;0.47;;;5.50;99.90;;;;;;4430049;32;20069;-69
2021/11/26 03:21:40;;;;;;;4.85;1.33;;;5.50;99.90;;;;;;4442113;32;20116;-69
2021/11/26 03:24:06;;;;;;;4.97;1.48;;;5.50;99.90;;;;;;4430920;32;20073;-69
2021/11/26 03:26:31;;;;;;;0.57;0.57;;;5.50;99.90;;;;;;4431368;32;20077;-69
2021/11/26 03:28:57;;;;;;;2.03;1.75;;;5.40;99.90;;;;;;4429917;32;20061;-69
2021/11/26 03:31:22;;;;;;;0.60;0.60;;;5.50;99.90;;;;;;4430802;32;20451;-69
2021/11/26 03:33:48;;;;;;;0.77;0.75;;;5.40;99.90;;;;;;4432988;32;20115;-69
2021/11/26 03:36:13;;;;;;;3.42;1.83;;;5.40;99.90;;;;;;4434647;32;20054;-68
2021/11/26 03:38:39;;;;;;;0.55;0.55;;;5.50;99.90;;;;;;4430632;32;20077;-69
2021/11/26 03:41:04;;;;;;;1.62;0.73;;;5.50;99.90;;;;;;4439022;32;20081;-69
2021/11/26 03:43:30;;;;;;;0.73;0.73;;;5.30;99.90;;;;;;4430885;32;20061;-69
2021/11/26 03:45:55;;;;;;;0.77;0.77;;;5.30;99.90;;;;;;4433135;32;20082;-69
2021/11/26 03:48:21;;;;;;;0.50;0.50;;;5.30;99.90;;;;;;4433011;32;20198;-69
2021/11/26 03:50:46;;;;;;;9.60;1.15;;;5.20;99.90;;;;;;4434565;32;20061;-69
2021/11/26 03:53:12;;;;;;;0.60;0.60;;;5.40;99.90;;;;;;4441375;32;20068;-69
2021/11/26 03:55:38;;;;;;;0.93;0.93;;;5.40;99.90;;;;;;4441493;32;20061;-69
2021/11/26 03:58:04;;;;;;;0.52;0.52;;;5.40;99.90;;;;;;4439092;32;20440;-69
2021/11/26 04:00:29;;;;;;;0.88;0.88;;;5.40;99.90;;;;;;4430615;32;20073;-69
2021/11/26 04:02:56;;;;;;;1.73;0.80;;;5.40;99.90;;;;;;4432000;32;20074;-69
2021/11/26 04:05:22;;;;;;;2.12;1.27;;;5.30;99.90;;;;;;4433874;32;20077;-69
2021/11/26 04:07:48;;;;;;;3.72;0.77;;;5.40;99.90;;;;;;4428750;32;20065;-69
2021/11/26 04:10:15;;;;;;;0.90;0.90;;;5.40;99.90;;;;;;4430175;32;20073;-69
2021/11/26 04:12:41;;;;;;;2.50;1.60;;;5.30;99.90;;;;;;4430519;32;20511;-69
2021/11/26 04:15:08;;;;;;;1.02;0.70;;;5.30;99.90;;;;;;4434806;32;20598;-69
2021/11/26 04:17:36;;;;;;;0.60;0.57;;;5.30;99.90;;;;;;4429859;32;20662;-69
2021/11/26 04:20:03;;;;;;;0.73;0.73;;;5.40;99.90;;;;;;4435377;32;20069;-69
2021/11/26 04:22:29;;;;;;;0.50;0.50;;;5.40;99.90;;;;;;4436569;32;20077;-69
2021/11/26 04:24:54;;;;;;;1.05;0.80;;;5.50;99.90;;;;;;4433223;32;20081;-69
2021/11/26 04:27:20;;;;;;;1.52;1.42;;;5.40;99.90;;;;;;4442203;32;20397;-69
2021/11/26 04:29:45;;;;;;;0.50;0.50;;;5.40;99.90;;;;;;4438032;32;20076;-69
2021/11/26 04:32:14;;;;;;;3.58;1.58;;;5.50;99.90;;;;;;4425727;32;101120;-69
2021/11/26 04:34:40;;;;;;;9.20;2.10;;;5.50;99.90;;;;;;4429863;32;20393;-69
2021/11/26 04:37:06;;;;;;;0.88;0.88;;;5.40;99.90;;;;;;4436607;32;20085;-69
2021/11/26 04:39:32;;;;;;;1.55;1.12;;;5.40;99.90;;;;;;4428811;32;20156;-69
2021/11/26 04:41:57;;;;;;;4.60;1.25;;;5.40;99.90;;;;;;4434763;32;20546;-69
2021/11/26 04:44:23;;;;;;;0.62;0.62;;;5.40;99.90;;;;;;4434329;32;20069;-69
2021/11/26 04:46:48;;;;;;;0.55;0.55;;;5.40;99.90;;;;;;4443334;32;20069;-69
2021/11/26 04:49:14;;;;;;;0.77;0.77;;;5.40;99.90;;;;;;4430204;32;20077;-69
2021/11/26 04:51:39;;;;;;;0.68;0.68;;;5.40;99.90;;;;;;4439017;32;20054;-69
2021/11/26 04:54:05;;;;;;;0.40;0.40;;;5.50;99.90;;;;;;4436472;32;20089;-69
2021/11/26 04:56:31;;;;;;;4.78;2.30;;;5.60;99.90;;;;;;4430717;32;20093;-69
2021/11/26 04:58:57;;;;;;;1.33;1.23;;;5.70;99.90;;;;;;4429009;32;20061;-69
2021/11/26 05:01:23;;;;;;;6.35;1.20;;;5.60;99.90;;;;;;4431752;32;20522;-69
2021/11/26 05:03:51;;;;;;;0.82;0.82;;;5.50;99.90;;;;;;4424300;32;20113;-69
2021/11/26 05:06:17;;;;;;;2.10;0.80;;;5.50;99.90;;;;;;4433747;32;20089;-69
2021/11/26 05:08:42;;;;;;;2.85;1.12;;;5.50;99.90;;;;;;4428480;32;20530;-69
2021/11/26 05:11:07;;;;;;;0.75;0.73;;;5.50;99.90;;;;;;4427892;32;20073;-69
2021/11/26 05:13:40;;;;;;;0.65;0.65;;;5.60;99.90;;;;;;4434263;32;20496;-69
2021/11/26 05:16:05;;;;;;;0.50;0.50;;;5.50;99.90;;;;;;4436657;32;20111;-69
2021/11/26 05:18:31;;;;;;;0.57;0.57;;;5.50;99.90;;;;;;4435973;32;20480;-69
2021/11/26 05:20:56;;;;;;;3.65;0.95;;;5.40;99.90;;;;;;4429213;32;20077;-69
2021/11/26 05:23:23;;;;;;;3.28;0.73;;;5.50;99.90;;;;;;4423379;32;20093;-69
2021/11/26 05:25:49;;;;;;;0.62;0.62;;;5.50;99.90;;;;;;4430679;32;20074;-69
2021/11/26 05:28:17;;;;;;;0.68;0.65;;;5.50;99.90;;;;;;4435856;32;20448;-69
2021/11/26 05:30:43;;;;;;;4.60;1.85;;;5.50;99.90;;;;;;4428518;32;20070;-69
2021/11/26 05:33:09;;;;;;;5.22;1.02;;;5.50;99.90;;;;;;4432273;32;20530;-69
2021/11/26 05:35:35;;;;;;;1.70;0.95;;;5.50;99.90;;;;;;4432954;32;20189;-69
2021/11/26 05:38:01;;;;;;;0.50;0.50;;;5.50;99.90;;;;;;4434325;32;20062;-69
2021/11/26 05:40:26;;;;;;;2.17;1.15;;;5.50;99.90;;;;;;4428826;32;20061;-69
2021/11/26 05:42:52;;;;;;;0.52;0.52;;;5.30;99.90;;;;;;4437996;32;20073;-70
2021/11/26 05:45:18;;;;;;;12.43;1.05;;;5.30;99.90;;;;;;4431642;32;20056;-69
2021/11/26 05:47:44;;;;;;;0.73;0.73;;;5.40;99.90;;;;;;4430745;32;20081;-69
2021/11/26 05:50:12;;;;;;;4.05;1.65;;;5.40;99.90;;;;;;4433551;32;20073;-69
2021/11/26 05:52:38;;;;;;;27.10;1.65;;;5.50;99.90;;;;;;4436657;32;20408;-69
2021/11/26 05:55:06;;;;;;;2.62;0.73;;;5.50;99.90;;;;;;4429198;32;20124;-69
2021/11/26 05:57:31;;;;;;;0.65;0.65;;;5.50;99.90;;;;;;4437368;32;20080;-69
2021/11/26 05:59:57;;;;;;;1.15;1.05;;;5.50;99.90;;;;;;4427874;32;20082;-69
2021/11/26 06:02:24;;;;;;;0.73;0.57;;;5.50;99.90;;;;;;4418781;32;20078;-69
2021/11/26 06:04:49;;;;;;;1.77;1.12;;;5.50;99.90;;;;;;4423917;32;20085;-69
2021/11/26 06:07:16;;;;;;;0.70;0.70;;;5.50;99.90;;;;;;4426481;32;20069;-69
2021/11/26 06:09:42;;;;;;;0.50;0.50;;;5.50;99.90;;;;;;4427906;32;20081;-69
2021/11/26 06:12:09;;;;;;;7.87;1.17;;;5.50;99.90;;;;;;4425877;32;20077;-69
2021/11/26 06:14:35;;;;;;;1.50;0.88;;;5.50;99.90;;;;;;4429191;32;20522;-69
2021/11/26 06:17:01;;;;;;;0.57;0.57;;;5.50;99.90;;;;;;4414747;32;20081;-69
2021/11/26 06:19:26;;;;;;;0.90;0.70;;;5.50;99.90;;;;;;4424174;32;20082;-69
2021/11/26 06:21:52;;;;;;;0.60;0.60;;;5.40;99.90;;;;;;4433287;32;20094;-69
2021/11/26 06:24:17;;;;;;;3.72;0.75;;;5.40;99.90;;;;;;4438054;32;20105;-69
2021/11/26 06:26:43;;;;;;;1.25;0.70;;;5.40;99.90;;;;;;4418824;32;20073;-68
2021/11/26 06:29:13;;;;;;;3.62;0.82;;;5.40;99.90;;;;;;4423490;32;20118;-67
2021/11/26 06:31:39;;;;;;;0.70;0.70;;;5.30;99.90;;;;;;4409531;32;21365;-68
2021/11/26 06:34:07;;;;;;;1.67;1.17;;;5.40;99.90;;;;;;4423590;32;20073;-69
2021/11/26 06:36:36;;;;;;;0.65;0.65;;;5.40;99.90;;;;;;4435124;32;20126;-68
2021/11/26 06:39:04;;;;;;;1.37;1.02;;;5.50;99.90;;;;;;4424352;32;20061;-68
2021/11/26 06:41:30;;;;;;;1.50;1.10;;;5.50;99.90;;;;;;4428105;32;20086;-68
2021/11/26 06:43:55;;;;;;;0.82;0.82;;;5.40;99.90;;;;;;4423709;32;20085;-69
2021/11/26 06:46:22;;;;;;;0.55;0.55;;;5.50;99.90;;;;;;4424168;32;20096;-69
2021/11/26 06:48:49;;;;;;;1.55;0.95;;;5.40;99.90;;;;;;4425476;32;20061;-68
2021/11/26 06:51:16;;;;;;;0.77;0.77;;;5.40;99.90;;;;;;4424176;32;20077;-69
2021/11/26 06:53:42;;;;;;;0.47;0.47;;;5.30;99.90;;;;;;4426420;32;20094;-69
2021/11/26 06:56:07;;;;;;;0.77;0.77;;;5.40;99.90;;;;;;4426938;32;20112;-68
2021/11/26 06:58:33;;;;;;;1.70;0.77;;;5.40;99.90;;;;;;4419214;32;20073;-69
2021/11/26 07:00:59;;;;;;;0.32;0.32;;;5.40;99.90;;;;;;4416530;32;20512;-68
2021/11/26 07:03:25;;;;;;;0.75;0.55;;;5.40;99.90;;;;;;4413282;32;20205;-69
2021/11/26 07:05:51;;;;;;;0.52;0.52;;;5.40;99.90;;;;;;4414801;32;20108;-68
2021/11/26 07:08:18;;;;;;;1.42;1.33;;;5.40;99.90;;;;;;4420739;32;20080;-68
2021/11/26 07:10:45;;;;;;;0.40;0.40;;;5.40;99.90;;;;;;4421077;32;20115;-68
2021/11/26 07:13:11;;;;;;;1.10;0.62;;;5.40;99.90;;;;;;4422633;32;20089;-68
2021/11/26 07:15:37;;;;;;;0.30;0.30;;;5.50;99.90;;;;;;4420469;32;20835;-69
2021/11/26 07:18:03;;;;;;;1.12;0.80;;;5.40;99.90;;;;;;4419140;32;20142;-69
2021/11/26 07:20:29;;;;;;;0.93;0.93;;;5.50;99.90;;;;;;4418993;32;20531;-69
2021/11/26 07:22:55;;;;;;;1.70;0.88;;;5.50;99.90;;;;;;4417905;32;20480;-69
2021/11/26 07:25:20;;;;;;;4.30;0.98;;;5.50;99.90;;;;;;4420386;32;20069;-69
2021/11/26 07:27:47;;;;;;;0.50;0.50;;;5.50;99.90;;;;;;4425314;32;20140;-69
2021/11/26 07:30:14;;;;;;;0.62;0.62;;;5.50;99.90;;;;;;4418443;32;20078;-69
2021/11/26 07:32:40;;;;;;;0.40;0.40;;;5.60;99.90;;;;;;4407675;32;20129;-69
2021/11/26 07:35:06;;;;;;;6.85;1.67;;;5.60;99.90;;;;;;4417506;32;20073;-69
2021/11/26 07:37:34;;;;;;;3.85;1.48;;;5.60;99.90;;;;;;4415829;32;20069;-69
2021/11/26 07:39:59;;;;;;;1.58;0.65;;;5.60;99.90;;;;;;4417739;32;20558;-69
2021/11/26 07:42:26;;;;;;;4.35;0.57;;;5.50;99.90;;;;;;4416465;32;20783;-69
2021/11/26 07:44:51;;;;;;;2.05;1.00;;;5.50;99.90;;;;;;4410647;32;20072;-69
2021/11/26 07:47:18;;;;;;;2.25;0.90;;;5.50;99.90;;;;;;4413725;32;20240;-69
2021/11/26 07:49:45;;;;;;;1.58;1.48;;;5.50;99.90;;;;;;4417519;32;20409;-69
2021/11/26 07:52:11;;;;;;;0.50;0.50;;;5.50;99.90;;;;;;4419539;32;20072;-69
2021/11/26 07:54:37;;;;;;;14.20;1.37;;;5.50;99.90;;;;;;4418992;32;20136;-69
2021/11/26 07:57:02;;;;;;;0.85;0.85;;;5.60;99.90;;;;;;4417784;32;20498;-69
2021/11/26 07:59:28;;;;;;;7.53;0.93;;;5.60;99.90;;;;;;4412617;32;20468;-69
2021/11/26 08:01:54;;;;;;;3.33;1.10;;;5.50;99.90;;;;;;4416448;32;20460;-69
2021/11/26 08:04:21;;;;;;;0.43;0.43;;;5.60;99.90;;;;;;4419801;32;20598;-69
2021/11/26 08:06:47;;;;;;;1.30;1.15;;;5.50;99.90;;;;;;4423257;32;20065;-69
2021/11/26 08:09:14;;;;;;;4.37;1.40;;;5.60;99.90;;;;;;4422119;32;20138;-69
2021/11/26 08:11:41;;;;;;;0.68;0.55;;;5.60;99.90;;;;;;4416369;32;20081;-69
2021/11/26 08:14:07;;;;;;;0.55;0.55;;;5.60;99.90;;;;;;4415392;32;20065;-69
2021/11/26 08:16:32;;;;;;;0.60;0.60;;;5.60;99.90;;;;;;4420797;32;20463;-69
2021/11/26 08:18:58;;;;;;;0.62;0.62;;;5.60;99.90;;;;;;4415679;32;20073;-69
2021/11/26 08:21:24;;;;;;;2.42;1.50;;;5.70;99.90;;;;;;4413840;32;20114;-69
2021/11/26 08:23:49;;;;;;;0.70;0.60;;;5.70;99.90;;;;;;4412364;32;20400;-69
2021/11/26 08:26:15;;;;;;;0.93;0.93;;;5.70;99.90;;;;;;4414058;32;20661;-69
2021/11/26 08:28:40;;;;;;;0.62;0.62;;;5.50;99.90;;;;;;4412385;32;20582;-69
2021/11/26 08:31:06;;;;;;;1.25;1.15;;;5.60;99.90;;;;;;4406568;32;20441;-69
2021/11/26 08:33:32;;;;;;;0.60;0.60;;;5.50;99.90;;;;;;4403770;32;20471;-69
2021/11/26 08:35:58;;;;;;;3.08;1.50;;;5.50;99.90;;;;;;4410861;32;20076;-70
2021/11/26 08:38:24;;;;;;;0.55;0.55;;;5.60;99.90;;;;;;4418734;32;20812;-66
2021/11/26 08:40:50;;;;;;;0.60;0.60;;;5.80;99.90;;;;;;4416671;32;20157;-69
2021/11/26 08:43:16;;;;;;;1.23;1.10;;;6.00;99.90;;;;;;4413002;32;20069;-70
2021/11/26 08:45:41;;;;;;;1.15;1.05;;;6.00;99.90;;;;;;4412797;32;20066;-71
2021/11/26 08:48:07;;;;;;;0.60;0.60;;;6.00;99.90;;;;;;4411964;32;20089;-68
2021/11/26 08:50:34;;;;;;;0.90;0.90;;;6.10;99.90;;;;;;4414558;32;20100;-70
2021/11/26 08:53:02;;;;;;;7.25;1.08;;;6.20;99.90;;;;;;4408818;32;20998;-70
2021/11/26 08:55:28;;;;;;;0.65;0.65;;;6.30;99.90;;;;;;4407354;32;20123;-70
2021/11/26 08:57:54;;;;;;;0.62;0.47;;;6.20;99.90;;;;;;4417182;32;20090;-69
2021/11/26 09:00:25;;;;;;;0.55;0.55;;;6.30;99.90;;;;;;4414371;32;20147;-70
2021/11/26 09:02:51;;;;;;;0.45;0.45;;;6.30;99.90;;;;;;4418326;32;20285;-70
2021/11/26 09:05:16;;;;;;;1.00;0.65;;;6.30;99.90;;;;;;4410714;32;20104;-70
2021/11/26 09:07:44;;;;;;;0.52;0.52;;;6.40;99.90;;;;;;4409590;32;20089;-70
2021/11/26 09:10:10;;;;;;;1.65;0.75;;;6.20;99.90;;;;;;4413449;32;20105;-70
2021/11/26 09:12:36;;;;;;;1.02;0.73;;;6.20;99.90;;;;;;4413612;32;20424;-69
2021/11/26 09:15:02;;;;;;;4.62;0.70;;;6.30;99.90;;;;;;4412912;32;20119;-70
2021/11/26 09:17:28;;;;;;;1.42;0.95;;;6.40;99.90;;;;;;4414003;32;20089;-69
2021/11/26 09:19:53;;;;;;;0.60;0.60;;;6.40;99.90;;;;;;4407134;32;20325;-69
2021/11/26 09:22:19;;;;;;;0.80;0.80;;;6.40;99.90;;;;;;4406270;32;20634;-69
2021/11/26 09:24:44;;;;;;;1.50;1.20;;;6.30;99.90;;;;;;4406660;32;20093;-70
2021/11/26 09:27:10;;;;;;;2.05;1.15;;;6.40;99.90;;;;;;4412944;32;20089;-69
2021/11/26 09:29:35;;;;;;;0.88;0.75;;;6.40;99.90;;;;;;4415627;32;20780;-69
2021/11/26 09:32:01;;;;;;;0.70;0.70;;;6.50;99.90;;;;;;4404149;32;20093;-71
2021/11/26 09:34:28;;;;;;;0.90;0.90;;;6.60;99.90;;;;;;4404837;32;20092;-68
2021/11/26 09:36:55;;;;;;;3.00;1.40;;;6.60;99.90;;;;;;4405586;32;20102;-68
2021/11/26 09:39:21;;;;;;;0.40;0.40;;;6.60;99.90;;;;;;4411720;32;20090;-70
2021/11/26 09:41:48;;;;;;;0.85;0.75;;;6.60;99.90;;;;;;4399529;32;20453;-69
2021/11/26 09:44:14;;;;;;;1.12;0.88;;;6.50;99.90;;;;;;4404413;32;20077;-69
2021/11/26 09:46:43;;;;;;;1.75;1.17;;;6.60;99.90;;;;;;4401907;32;20602;-69
2021/11/26 09:49:09;;;;;;;6.18;1.40;;;6.60;99.90;;;;;;4414011;32;20951;-69
2021/11/26 09:51:35;;;;;;;1.40;1.05;;;6.70;99.90;;;;;;4406737;32;20077;-69
2021/11/26 09:54:01;;;;;;;1.55;0.75;;;6.80;99.90;;;;;;4408325;32;20057;-69
2021/11/26 09:56:28;;;;;;;20.17;0.80;;;6.60;99.90;;;;;;4413750;32;20130;-69
2021/11/26 09:58:53;;;;;;;7.68;1.25;;;6.50;99.90;;;;;;4411495;32;20109;-69
2021/11/26 10:01:19;;;;;;;0.52;0.52;;;6.50;99.90;;;;;;4402533;32;20835;-69
2021/11/26 10:03:47;;;;;;;2.10;1.10;;;6.50;99.90;;;;;;4404897;32;20090;-69
2021/11/26 10:06:40;;;;;;;0.80;0.80;;;6.50;99.90;;;;;;4411256;32;20074;-69
2021/11/26 10:09:11;;;;;;;2.28;0.82;;;6.40;99.90;;;;;;4404046;32;20519;-69
2021/11/26 10:12:03;;;;;;;1.02;0.93;;;6.40;99.90;;;;;;4407427;32;20112;-69
2021/11/26 10:14:34;;;;;;;1.00;0.68;;;6.30;99.90;;;;;;4411852;32;20306;-69
2021/11/26 10:17:13;;;;;;;0.50;0.50;;;6.40;99.90;;;;;;4408295;32;20100;-69
2021/11/26 10:19:46;;;;;;;6.68;1.05;;;6.50;99.90;;;;;;4408971;32;20113;-70
2021/11/26 10:22:14;;;;;;;0.70;0.70;;;6.50;99.90;;;;;;4409384;32;20094;-69
2021/11/26 10:24:39;;;;;;;5.47;1.58;;;6.30;99.90;;;;;;4419241;32;20156;-69
2021/11/26 10:27:05;;;;;;;1.02;0.95;;;6.30;99.90;;;;;;4410467;32;20093;-69
2021/11/26 10:29:33;;;;;;;3.22;1.87;;;6.20;99.90;;;;;;4404560;32;20089;-70
2021/11/26 10:32:10;;;;;;;3.22;2.00;;;6.30;99.90;;;;;;4411400;32;20094;-69
2021/11/26 10:34:37;;;;;;;0.55;0.55;;;6.40;99.90;;;;;;4412581;32;20646;-70
2021/11/26 10:37:03;;;;;;;0.80;0.80;;;6.40;99.90;;;;;;4414179;32;20542;-68
2021/11/26 10:39:32;;;;;;;1.48;1.12;;;6.40;99.90;;;;;;4412767;32;20204;-69
2021/11/26 10:41:59;;;;;;;0.65;0.65;;;6.30;99.90;;;;;;4419067;32;20073;-70
2021/11/26 10:44:42;;;;;;;0.93;0.93;;;6.20;99.90;;;;;;4414797;32;20093;-70
2021/11/26 10:47:15;;;;;;;7.15;0.45;;;6.30;99.90;;;;;;4413381;32;20104;-69
2021/11/26 10:52:23;;;;;;;5.37;1.10;;;6.30;99.90;;;;;;4414703;32;20077;-69
2021/11/26 10:57:25;;;;;;;1.00;1.00;;;6.30;99.90;;;;;;4415275;32;20161;-69
2021/11/26 11:00:20;;;;;;;0.60;0.60;;;6.40;99.90;;;;;;4419098;32;20081;-69
2021/11/26 11:02:48;;;;;;;4.43;1.17;;;6.50;99.90;;;;;;4418256;32;20086;-69
2021/11/26 11:05:31;;;;;;;0.70;0.70;;;6.70;99.90;;;;;;4422284;32;20471;-69
2021/11/26 11:08:00;;;;;;;0.47;0.47;;;6.70;99.90;;;;;;4418750;32;20181;-70
2021/11/26 11:10:31;;;;;;;1.65;1.27;;;6.60;99.90;;;;;;4417894;32;20123;-69
2021/11/26 11:12:59;;;;;;;0.68;0.68;;;6.60;99.90;;;;;;4418928;32;20081;-69
2021/11/26 11:15:25;;;;;;;7.68;2.80;;;6.50;99.90;;;;;;4412568;32;20077;-69
2021/11/26 11:17:51;;;;;;;2.17;1.23;;;6.40;99.90;;;;;;4410369;32;20133;-69
2021/11/26 11:20:19;;;;;;;2.95;0.80;;;6.50;99.90;;;;;;4415189;32;20082;-69
2021/11/26 11:22:45;;;;;;;1.33;0.93;;;6.80;99.90;;;;;;4421103;32;20081;-70
2021/11/26 11:25:14;;;;;;;54.53;5.97;;;6.60;99.90;;;;;;4423001;32;20101;-70
2021/11/26 11:27:40;;;;;;;0.60;0.60;;;6.60;99.90;;;;;;4414890;32;20475;-70
2021/11/26 11:30:08;;;;;;;1.62;0.95;;;6.70;99.90;;;;;;4419479;32;20308;-70
2021/11/26 11:32:36;;;;;;;1.48;0.98;;;6.80;99.90;;;;;;4408942;32;20090;-68
2021/11/26 11:35:09;;;;;;;1.87;0.62;;;7.00;99.90;;;;;;4414789;32;20425;-70
2021/11/26 11:37:35;;;;;;;3.30;1.50;;;7.10;99.90;;;;;;4420923;32;20906;-69
2021/11/26 11:40:06;;;;;;;1.27;1.08;;;7.30;99.90;;;;;;4423008;32;20064;-68
2021/11/26 11:42:36;;;;;;;10.15;1.77;;;7.50;99.90;;;;;;4417510;32;20077;-70
2021/11/26 11:45:21;;;;;;;2.55;1.33;;;7.70;99.90;;;;;;4417429;32;20525;-70
2021/11/26 11:47:52;;;;;;;1.45;0.85;;;7.90;99.90;;;;;;4423133;32;20070;-69
2021/11/26 11:50:21;;;;;;;0.82;0.47;;;8.10;99.90;;;;;;4420890;32;20077;-70
2021/11/26 11:52:58;;;;;;;1.25;1.17;;;8.10;99.90;;;;;;4413905;32;20176;-70
2021/11/26 11:55:29;;;;;;;1.40;1.00;;;7.90;99.90;;;;;;4408734;32;20553;-70
2021/11/26 11:58:11;;;;;;;0.75;0.75;;;7.70;99.90;;;;;;4411424;32;20114;-71
2021/11/26 12:00:37;;;;;;;1.23;0.90;;;7.90;99.90;;;;;;4413404;32;20085;-71
2021/11/26 12:03:13;;;;;;;1.35;0.98;;;8.40;99.90;;;;;;4412281;32;20121;-70
2021/11/26 12:05:39;;;;;;;5.35;1.48;;;8.40;99.90;;;;;;4417608;32;20060;-71
2021/11/26 12:08:20;;;;;;;0.70;0.70;;;8.70;99.90;;;;;;4413593;32;20085;-69
2021/11/26 12:10:47;;;;;;;;;;;9.00;99.90;;;;;;4422283;32;20093;-70
2021/11/26 12:13:23;;;;;;;0.82;0.82;;;9.40;99.90;;;;;;4413813;32;19964;-69
2021/11/26 12:15:51;;;;;;;0.50;0.50;;;9.30;99.90;;;;;;4410901;32;21076;-70
2021/11/26 12:18:17;;;;;;;5.50;0.73;;;9.40;99.90;;;;;;4417809;32;20403;-70
2021/11/26 12:20:47;;;;;;;3.47;1.35;;;9.50;99.90;;;;;;4418984;32;20519;-70
2021/11/26 12:23:18;;;;;;;1.83;0.73;;;9.90;99.90;;;;;;4414216;32;20575;-71
2021/11/26 12:25:55;;;;;;;0.68;0.68;;;10.00;99.90;;;;;;4412773;32;20069;-70
2021/11/26 12:28:24;;;;;;;0.80;0.80;;;10.10;99.90;;;;;;4411551;32;20127;-70
2021/11/26 12:31:08;;;;;;;5.50;1.80;;;10.10;99.90;;;;;;4407403;32;20093;-71
2021/11/26 12:33:35;;;;;;;1.67;1.05;;;10.20;99.90;;;;;;4412991;32;20088;-70
2021/11/26 12:36:06;;;;;;;1.20;0.73;;;10.30;99.90;;;;;;4418098;32;20117;-71
2021/11/26 12:38:38;;;;;;;0.40;0.40;;;10.30;99.90;;;;;;4413779;32;20072;-71
2021/11/26 12:41:05;;;;;;;2.05;1.17;;;10.20;99.90;;;;;;4408513;32;20081;-71
2021/11/26 12:43:40;;;;;;;0.62;0.62;;;10.10;99.90;;;;;;4414586;32;20452;-71
2021/11/26 12:46:06;;;;;;;0.50;0.50;;;10.10;99.90;;;;;;4409625;32;20105;-70
2021/11/26 12:48:35;;;;;;;2.05;1.52;;;9.90;99.90;;;;;;4412072;32;20113;-69
2021/11/26 12:51:05;;;;;;;2.33;1.10;;;10.10;99.90;;;;;;4410110;32;20088;-68
2021/11/26 12:53:31;;;;;;;2.50;0.85;;;10.10;99.90;;;;;;4408434;32;20192;-69
2021/11/26 12:56:00;;;;;;;1.08;0.90;;;9.70;99.90;;;;;;4402021;32;20964;-68
2021/11/26 12:58:28;;;;;;;3.80;1.00;;;9.60;99.90;;;;;;4413022;32;20064;-69
2021/11/26 13:01:00;;;;;;;3.00;1.37;;;9.10;99.90;;;;;;4415115;32;20143;-68
2021/11/26 13:03:30;;;;;;;0.55;0.55;;;9.00;99.90;;;;;;4407349;32;20140;-68